createdAt,value
2019-04-06T00:01:39.799Z,76.43
2019-04-06T00:04:09.446Z,83.10
2019-04-06T00:06:39.079Z,70.10
2019-04-06T00:09:08.874Z,77.00
2019-04-06T00:11:38.502Z,75.90
2019-04-06T00:14:08.214Z,75.47
2019-04-06T00:16:37.871Z,79.60
2019-04-06T00:19:07.581Z,68.23
2019-04-06T00:21:37.236Z,64.27
2019-04-06T00:24:06.964Z,73.67
2019-04-06T00:26:36.600Z,82.93
2019-04-06T00:29:06.262Z,83.60
2019-04-06T00:31:53.621Z,77.00
2019-04-06T00:34:23.435Z,75.13
2019-04-06T00:36:53.168Z,73.40
2019-04-06T00:39:22.889Z,85.83
2019-04-06T00:41:52.641Z,74.00
2019-04-06T00:44:22.360Z,75.63
2019-04-06T00:46:52.001Z,82.63
2019-04-06T00:49:21.663Z,76.50
2019-04-06T00:51:51.291Z,73.30
2019-04-06T00:54:21.218Z,72.13
2019-04-06T00:56:50.863Z,76.77
2019-04-06T00:59:20.522Z,75.67
2019-04-06T01:01:50.257Z,82.60
2019-04-06T01:04:19.976Z,83.83
2019-04-06T01:06:49.616Z,80.87
2019-04-06T01:09:19.335Z,75.10
2019-04-06T01:11:48.982Z,75.73
2019-04-06T01:14:18.728Z,72.37
2019-04-06T01:16:48.514Z,71.50
2019-04-06T01:19:18.169Z,83.40
2019-04-06T01:21:47.835Z,79.00
2019-04-06T01:24:17.483Z,81.00
2019-04-06T01:26:47.130Z,83.67
2019-04-06T01:29:16.791Z,76.93
2019-04-06T01:31:46.431Z,70.33
2019-04-06T01:34:16.084Z,71.55
2019-04-06T01:36:45.739Z,64.00
2019-04-06T01:39:15.398Z,64.87
2019-04-06T01:41:45.047Z,65.00
2019-04-06T01:44:14.792Z,69.03
2019-04-06T01:46:44.472Z,64.53
2019-04-06T01:49:14.191Z,85.30
2019-04-06T01:51:43.825Z,64.10
2019-04-06T01:54:13.739Z,81.57
2019-04-06T01:56:43.399Z,79.97
2019-04-06T01:59:13.056Z,63.07
2019-04-06T02:01:47.302Z,77.33
2019-04-06T02:04:16.943Z,71.33
2019-04-06T02:06:46.620Z,72.77
2019-04-06T02:09:16.339Z,68.67
2019-04-06T02:11:46.012Z,72.30
2019-04-06T02:14:15.647Z,75.80
2019-04-06T02:16:45.384Z,77.00
2019-04-06T02:19:14.995Z,68.17
2019-04-06T02:21:44.646Z,75.17
2019-04-06T02:24:14.280Z,74.33
2019-04-06T02:26:44.008Z,81.30
2019-04-06T02:29:13.706Z,73.83
2019-04-06T02:32:02.469Z,75.33
2019-04-06T02:34:48.867Z,77.40
2019-04-06T02:37:28.941Z,70.60
2019-04-06T02:40:23.779Z,73.20
2019-04-06T02:43:00.490Z,77.53
2019-04-06T02:45:30.297Z,81.60
2019-04-06T02:48:00.488Z,76.10
2019-04-06T02:50:30.283Z,88.80
2019-04-06T02:53:00.031Z,76.43
2019-04-06T02:55:30.132Z,78.40
2019-04-06T02:57:59.927Z,79.73
2019-04-06T03:00:29.810Z,76.33
2019-04-06T03:02:59.600Z,81.03
2019-04-06T03:05:29.414Z,78.33
2019-04-06T03:07:59.198Z,81.27
2019-04-06T03:10:29.009Z,77.83
2019-04-06T03:12:59.003Z,83.07
2019-04-06T03:15:28.741Z,79.23
2019-04-06T03:17:58.463Z,86.13
2019-04-06T03:20:28.109Z,82.77
2019-04-06T03:22:58.070Z,90.43
2019-04-06T03:25:28.695Z,85.80
2019-04-06T03:27:58.436Z,84.57
2019-04-06T03:30:28.279Z,84.40
2019-04-06T03:32:57.961Z,87.43
2019-04-06T03:35:27.847Z,94.67
2019-04-06T03:37:57.592Z,85.47
2019-04-06T03:40:27.312Z,88.63
2019-04-06T03:42:57.204Z,99.40
2019-04-06T03:45:26.867Z,83.47
2019-04-06T03:47:56.964Z,87.70
2019-04-06T03:50:26.712Z,84.17
2019-04-06T03:52:56.378Z,89.80
2019-04-06T03:55:26.028Z,85.40
2019-04-06T03:57:55.665Z,87.37
2019-04-06T04:00:25.301Z,86.37
2019-04-06T04:02:55.090Z,90.57
2019-04-06T04:05:24.898Z,84.10
2019-04-06T04:07:55.016Z,92.07
2019-04-06T04:10:36.086Z,82.93
2019-04-06T04:13:05.953Z,88.43
2019-04-06T04:15:35.739Z,88.50
2019-04-06T04:18:06.458Z,90.53
2019-04-06T04:20:37.479Z,82.60
2019-04-06T04:23:07.091Z,84.40
2019-04-06T04:25:36.848Z,81.90
2019-04-06T04:28:06.548Z,84.80
2019-04-06T04:30:36.257Z,84.53
2019-04-06T04:33:05.936Z,81.03
2019-04-06T04:35:35.579Z,74.83
2019-04-06T04:38:05.296Z,83.50
2019-04-06T04:40:34.952Z,75.13
2019-04-06T04:43:04.982Z,78.90
2019-04-06T04:45:34.803Z,83.30
2019-04-06T04:48:05.023Z,77.53
2019-04-06T04:50:34.758Z,76.27
2019-04-06T04:53:04.882Z,83.07
2019-04-06T04:55:34.591Z,90.47
2019-04-06T04:58:04.887Z,80.33
2019-04-06T05:00:34.623Z,84.73
2019-04-06T05:03:05.143Z,79.90
2019-04-06T05:05:35.186Z,84.33
2019-04-06T05:08:04.973Z,80.87
2019-04-06T05:10:34.791Z,81.83
2019-04-06T05:13:04.911Z,77.67
2019-04-06T05:15:57.953Z,76.07
2019-04-06T05:18:27.586Z,81.17
2019-04-06T05:20:57.287Z,79.57
2019-04-06T05:23:26.955Z,71.33
2019-04-06T05:25:56.962Z,77.20
2019-04-06T05:28:27.827Z,75.53
2019-04-06T05:30:57.699Z,80.63
2019-04-06T05:33:27.349Z,81.93
2019-04-06T05:35:57.009Z,78.87
2019-04-06T05:38:26.851Z,87.87
2019-04-06T05:40:56.571Z,87.60
2019-04-06T05:43:26.203Z,81.33
2019-04-06T05:45:55.992Z,76.73
2019-04-06T05:48:25.727Z,71.53
2019-04-06T05:50:55.552Z,79.43
2019-04-06T05:53:26.396Z,72.60
2019-04-06T05:55:57.191Z,76.80
2019-04-06T05:58:27.112Z,73.03
2019-04-06T06:00:56.926Z,75.73
2019-04-06T06:03:26.875Z,77.90
2019-04-06T06:05:56.576Z,77.27
2019-04-06T06:08:26.277Z,79.03
2019-04-06T06:10:56.068Z,73.37
2019-04-06T06:13:26.127Z,74.80
2019-04-06T06:15:55.827Z,76.47
2019-04-06T06:18:27.557Z,73.43
2019-04-06T06:20:56.967Z,71.80
2019-04-06T06:23:26.683Z,70.20
2019-04-06T06:25:56.539Z,77.27
2019-04-06T06:28:26.239Z,76.53
2019-04-06T06:30:55.997Z,76.77
2019-04-06T06:33:25.776Z,76.30
2019-04-06T06:35:55.450Z,71.70
2019-04-06T06:38:25.220Z,76.57
2019-04-06T06:40:55.019Z,74.77
2019-04-06T06:43:24.839Z,71.57
2019-04-06T06:45:54.586Z,69.40
2019-04-06T06:48:24.308Z,68.07
2019-04-06T06:50:54.017Z,65.37
2019-04-06T06:53:23.730Z,71.07
2019-04-06T06:55:54.007Z,73.33
2019-04-06T06:58:25.583Z,64.80
2019-04-06T07:00:55.291Z,64.70
2019-04-06T07:03:25.063Z,65.43
2019-04-06T07:05:54.734Z,69.90
2019-04-06T07:08:24.458Z,65.83
2019-04-06T07:10:54.152Z,62.23
2019-04-06T07:13:24.065Z,69.40
2019-04-06T07:15:54.279Z,66.70
2019-04-06T07:18:24.297Z,61.33
2019-04-06T07:20:54.121Z,57.95
2019-04-06T07:23:23.884Z,59.50
2019-04-06T07:25:58.664Z,64.50
2019-04-06T07:28:36.321Z,57.15
2019-04-06T07:30:56.427Z,58.00
2019-04-06T07:33:26.150Z,60.77
2019-04-06T07:35:55.835Z,55.58
2019-04-06T07:38:27.230Z,54.23
2019-04-06T07:40:57.111Z,49.45
2019-04-06T07:43:26.908Z,58.17
2019-04-06T07:45:57.479Z,58.53
2019-04-06T07:48:27.290Z,51.23
2019-04-06T07:50:56.972Z,49.05
2019-04-06T07:53:26.675Z,48.95
2019-04-06T07:55:56.459Z,49.58
2019-04-06T07:58:26.183Z,49.30
2019-04-06T08:00:56.012Z,51.40
2019-04-06T08:03:25.751Z,50.05
2019-04-06T08:05:56.683Z,46.02
2019-04-06T08:08:28.610Z,46.25
2019-04-06T08:10:58.166Z,49.27
2019-04-06T08:13:28.811Z,47.90
2019-04-06T08:15:58.642Z,44.88
2019-04-06T08:18:28.480Z,43.80
2019-04-06T08:20:58.146Z,40.55
2019-04-06T08:23:27.849Z,44.90
2019-04-06T08:25:57.523Z,49.48
2019-04-06T08:28:27.222Z,46.88
2019-04-06T08:30:56.948Z,48.30
2019-04-06T08:33:26.670Z,44.30
2019-04-06T08:35:56.421Z,47.20
2019-04-06T08:38:26.179Z,47.93
2019-04-06T08:40:55.919Z,50.17
2019-04-06T08:43:25.754Z,42.58
2019-04-06T08:45:55.523Z,42.27
2019-04-06T08:48:25.254Z,41.48
2019-04-06T08:50:54.943Z,50.78
2019-04-06T08:53:24.643Z,45.33
2019-04-06T08:55:54.569Z,47.27
2019-04-06T08:58:24.255Z,42.03
2019-04-06T09:00:53.981Z,41.63
2019-04-06T09:03:23.784Z,43.48
2019-04-06T09:05:53.591Z,41.95
2019-04-06T09:08:23.287Z,42.20
2019-04-06T09:10:53.030Z,42.13
2019-04-06T09:13:22.835Z,41.35
2019-04-06T09:15:52.623Z,41.70
2019-04-06T09:18:22.705Z,39.65
2019-04-06T09:20:52.461Z,40.33
2019-04-06T09:23:22.301Z,41.63
2019-04-06T09:25:52.178Z,39.00
2019-04-06T09:28:21.949Z,42.53
2019-04-06T09:30:56.891Z,39.78
2019-04-06T09:33:26.752Z,40.35
2019-04-06T09:35:56.901Z,45.12
2019-04-06T09:38:26.703Z,37.05
2019-04-06T09:40:56.452Z,40.90
2019-04-06T09:43:26.445Z,38.75
2019-04-06T09:46:04.176Z,47.85
2019-04-06T09:48:56.031Z,41.85
2019-04-06T09:51:43.780Z,40.10
2019-04-06T09:54:31.279Z,42.70
2019-04-06T09:57:20.227Z,43.15
2019-04-06T10:00:07.895Z,41.18
2019-04-06T10:02:55.634Z,41.25
2019-04-06T10:05:36.600Z,43.75
2019-04-06T10:08:25.583Z,41.02
2019-04-06T10:11:29.670Z,41.25
2019-04-06T10:14:21.867Z,48.23
2019-04-06T10:17:09.664Z,42.93
2019-04-06T10:19:55.391Z,43.70
2019-04-06T10:22:33.919Z,40.63
2019-04-06T10:25:32.158Z,43.68
2019-04-06T10:28:09.145Z,39.38
2019-04-06T10:31:07.034Z,40.67
2019-04-06T10:33:52.814Z,41.42
2019-04-06T10:36:44.713Z,44.48
2019-04-06T10:39:42.886Z,44.40
2019-04-06T10:42:23.871Z,40.50
2019-04-06T10:45:02.908Z,42.62
2019-04-06T10:47:50.561Z,41.75
2019-04-06T10:50:39.471Z,42.35
2019-04-06T10:53:32.658Z,38.75
2019-04-06T10:56:20.160Z,45.88
2019-04-06T10:59:02.224Z,47.43
2019-04-06T11:01:54.779Z,42.17
2019-04-06T11:04:31.932Z,45.90
2019-04-06T11:07:36.141Z,42.98
2019-04-06T11:10:15.775Z,42.38
2019-04-06T11:13:09.599Z,46.95
2019-04-06T11:15:49.734Z,43.35
2019-04-06T11:18:44.899Z,41.50
2019-04-06T11:21:39.786Z,48.63
2019-04-06T11:24:28.559Z,41.60
2019-04-06T11:27:09.138Z,45.38
2019-04-06T11:29:56.535Z,43.38
2019-04-06T11:32:42.386Z,43.30
2019-04-06T11:35:30.187Z,39.65
2019-04-06T11:38:18.937Z,42.48
2019-04-06T11:40:59.130Z,40.80
2019-04-06T11:43:40.551Z,45.98
2019-04-06T11:46:44.524Z,41.93
2019-04-06T11:49:32.189Z,44.17
2019-04-06T11:52:13.134Z,40.75
2019-04-06T11:55:01.917Z,43.78
2019-04-06T11:57:55.824Z,46.10
2019-04-06T12:00:32.072Z,45.70
2019-04-06T12:03:23.874Z,42.50
2019-04-06T12:06:12.634Z,45.52
2019-04-06T12:08:55.008Z,45.67
2019-04-06T12:11:44.390Z,38.00
2019-04-06T12:14:39.722Z,44.75
2019-04-06T12:17:22.876Z,44.40
2019-04-06T12:20:10.637Z,42.70
2019-04-06T12:22:55.507Z,48.52
2019-04-06T12:25:42.896Z,42.88
2019-04-06T12:28:17.808Z,40.25
2019-04-06T12:31:07.699Z,41.73
2019-04-06T12:33:51.356Z,42.38
2019-04-06T12:36:51.612Z,40.95
2019-04-06T12:39:52.558Z,47.08
2019-04-06T12:42:40.550Z,41.48
2019-04-06T12:45:28.887Z,42.30
2019-04-06T12:48:17.848Z,42.78
2019-04-06T12:51:08.771Z,49.18
2019-04-06T12:53:56.559Z,42.93
2019-04-06T12:56:31.403Z,44.25
2019-04-06T12:59:23.975Z,43.58
2019-04-06T13:02:08.213Z,42.80
2019-04-06T13:04:55.708Z,39.48
2019-04-06T13:08:02.832Z,46.10
2019-04-06T13:10:55.334Z,45.03
2019-04-06T13:14:02.531Z,47.90
2019-04-06T13:16:37.296Z,41.88
2019-04-06T13:19:38.066Z,43.02
2019-04-06T13:22:29.893Z,37.75
2019-04-06T13:25:18.724Z,428.38
2019-04-06T13:27:56.260Z,349.70
2019-04-06T13:31:02.113Z,85.45
2019-04-06T13:33:30.667Z,54.23
2019-04-06T13:36:13.064Z,47.70
2019-04-06T13:38:49.395Z,40.33
2019-04-06T13:41:28.400Z,42.10
2019-04-06T13:44:04.913Z,39.92
2019-04-06T13:46:55.890Z,39.58
2019-04-06T13:49:43.280Z,39.63
2019-04-06T13:52:24.298Z,44.67
2019-04-06T13:55:12.255Z,42.58
2019-04-06T13:58:01.653Z,43.17
2019-04-06T14:00:50.770Z,38.33
2019-04-06T14:03:38.466Z,41.58
2019-04-06T14:06:26.082Z,37.83
2019-04-06T14:09:17.874Z,36.88
2019-04-06T14:11:56.370Z,36.13
2019-04-06T14:14:39.497Z,42.90
2019-04-06T14:17:28.336Z,37.10
2019-04-06T14:20:23.625Z,35.98
2019-04-06T14:23:12.009Z,37.00
2019-04-06T14:26:06.687Z,43.23
2019-04-06T14:28:54.163Z,42.95
2019-04-06T14:31:32.698Z,39.75
2019-04-06T14:34:20.350Z,40.20
2019-04-06T14:37:16.019Z,40.88
2019-04-06T14:40:03.955Z,36.50
2019-04-06T14:42:57.031Z,37.33
2019-04-06T14:45:48.694Z,39.03
2019-04-06T14:48:35.058Z,42.75
2019-04-06T14:51:17.879Z,49.20
2019-04-06T14:53:52.418Z,37.70
2019-04-06T14:56:26.747Z,41.68
2019-04-06T14:59:05.428Z,38.95
2019-04-06T15:02:07.214Z,36.58
2019-04-06T15:04:55.255Z,41.37
2019-04-06T15:07:30.974Z,39.90
2019-04-06T15:10:18.840Z,40.85
2019-04-06T15:13:06.384Z,48.00
2019-04-06T15:16:01.017Z,40.63
2019-04-06T15:18:55.649Z,44.98
2019-04-06T15:21:41.236Z,39.70
2019-04-06T15:24:31.970Z,40.05
2019-04-06T15:27:10.149Z,36.48
2019-04-06T15:29:52.067Z,39.25
2019-04-06T15:32:33.982Z,41.48
2019-04-06T15:35:27.913Z,38.25
2019-04-06T15:38:06.046Z,35.38
2019-04-06T15:40:53.656Z,41.92
2019-04-06T15:43:32.790Z,35.55
2019-04-06T15:46:09.772Z,39.67
2019-04-06T15:48:57.240Z,37.42
2019-04-06T15:51:48.978Z,40.50
2019-04-06T15:54:24.702Z,37.40
2019-04-06T15:57:04.672Z,38.55
2019-04-06T15:59:59.384Z,38.70
2019-04-06T16:02:48.474Z,41.23
2019-04-06T16:05:37.718Z,39.85
2019-04-06T16:08:33.711Z,44.77
2019-04-06T16:11:14.536Z,37.98
2019-04-06T16:13:51.061Z,39.67
2019-04-06T16:16:41.631Z,36.13
2019-04-06T16:19:17.763Z,42.58
2019-04-06T16:21:56.600Z,39.05
2019-04-06T16:24:43.071Z,40.85
2019-04-06T16:27:30.379Z,38.45
2019-04-06T16:30:31.347Z,42.83
2019-04-06T16:33:25.556Z,51.65
2019-04-06T16:36:13.137Z,46.65
2019-04-06T16:39:06.709Z,41.13
2019-04-06T16:41:56.833Z,44.10
2019-04-06T16:44:51.774Z,43.02
2019-04-06T16:47:44.938Z,39.65
2019-04-06T16:50:21.956Z,45.15
2019-04-06T16:53:03.155Z,43.28
2019-04-06T16:55:44.669Z,39.15
2019-04-06T16:58:36.951Z,42.15
2019-04-06T17:01:13.527Z,44.55
2019-04-06T17:04:01.162Z,41.48
2019-04-06T17:06:39.867Z,40.48
2019-04-06T17:09:19.764Z,41.37
2019-04-06T17:12:06.192Z,39.70
2019-04-06T17:15:10.584Z,44.65
2019-04-06T17:17:58.055Z,43.87
2019-04-06T17:20:53.175Z,35.85
2019-04-06T17:23:51.486Z,40.30
2019-04-06T17:26:34.903Z,43.30
2019-04-06T17:29:24.676Z,45.95
2019-04-06T17:32:00.131Z,41.73
2019-04-06T17:34:34.974Z,43.38
2019-04-06T17:37:10.020Z,40.83
2019-04-06T17:40:07.970Z,37.93
2019-04-06T17:42:43.999Z,37.35
2019-04-06T17:45:28.659Z,37.38
2019-04-06T17:48:16.183Z,37.48
2019-04-06T17:51:01.287Z,44.38
2019-04-06T17:53:49.630Z,35.92
2019-04-06T17:56:31.892Z,42.58
2019-04-06T17:59:22.183Z,40.48
2019-04-06T18:02:14.068Z,37.10
2019-04-06T18:04:50.534Z,43.33
2019-04-06T18:07:39.275Z,42.70
2019-04-06T18:10:15.872Z,40.35
2019-04-06T18:13:04.611Z,44.80
2019-04-06T18:15:34.636Z,48.92
2019-04-06T18:18:05.490Z,40.90
2019-04-06T18:20:36.223Z,40.30
2019-04-06T18:23:05.878Z,45.45
2019-04-06T18:25:35.684Z,47.88
2019-04-06T18:28:05.940Z,39.23
2019-04-06T18:30:36.083Z,44.18
2019-04-06T18:33:09.497Z,45.20
2019-04-06T18:35:39.358Z,42.33
2019-04-06T18:38:19.925Z,41.50
2019-04-06T18:40:50.350Z,41.88
2019-04-06T18:43:21.143Z,39.58
2019-04-06T18:45:50.967Z,43.40
2019-04-06T18:48:20.976Z,41.40
2019-04-06T18:50:50.807Z,43.90
2019-04-06T18:53:20.608Z,43.98
2019-04-06T18:55:50.415Z,46.67
2019-04-06T18:58:20.126Z,39.27
2019-04-06T19:00:51.967Z,39.30
2019-04-06T19:03:22.026Z,43.08
2019-04-06T19:05:52.143Z,46.57
2019-04-06T19:08:21.830Z,40.17
2019-04-06T19:10:51.501Z,42.03
2019-04-06T19:13:21.570Z,44.27
2019-04-06T19:15:51.407Z,40.83
2019-04-06T19:18:21.150Z,38.80
2019-04-06T19:20:52.709Z,42.33
2019-04-06T19:23:22.940Z,41.23
2019-04-06T19:25:52.770Z,43.92
2019-04-06T19:28:22.475Z,43.70
2019-04-06T19:30:52.144Z,41.70
2019-04-06T19:33:25.065Z,39.23
2019-04-06T19:35:53.500Z,43.20
2019-04-06T19:38:23.417Z,42.13
2019-04-06T19:40:53.233Z,43.07
2019-04-06T19:43:23.016Z,41.53
2019-04-06T19:45:52.915Z,41.63
2019-04-06T19:48:23.687Z,42.00
2019-04-06T19:50:53.409Z,51.70
2019-04-06T19:53:23.133Z,44.98
2019-04-06T19:55:53.088Z,46.20
2019-04-06T19:58:22.911Z,44.90
2019-04-06T20:00:52.627Z,43.10
2019-04-06T20:03:33.730Z,51.50
2019-04-06T20:05:53.911Z,47.73
2019-04-06T20:08:23.857Z,44.50
2019-04-06T20:10:54.328Z,45.73
2019-04-06T20:13:24.833Z,50.93
2019-04-06T20:15:55.537Z,52.60
2019-04-06T20:18:26.167Z,43.13
2019-04-06T20:20:56.063Z,52.17
2019-04-06T20:23:25.842Z,48.43
2019-04-06T20:25:55.665Z,50.85
2019-04-06T20:28:25.385Z,47.07
2019-04-06T20:30:55.491Z,50.43
2019-04-06T20:33:29.560Z,47.37
2019-04-06T20:35:59.832Z,55.50
2019-04-06T20:38:29.931Z,52.20
2019-04-06T20:41:00.744Z,48.80
2019-04-06T20:43:30.502Z,47.73
2019-04-06T20:46:00.849Z,61.00
2019-04-06T20:48:30.711Z,57.23
2019-04-06T20:51:00.467Z,44.80
2019-04-06T20:53:30.226Z,50.43
2019-04-06T20:55:59.881Z,52.73
2019-04-06T20:58:30.101Z,52.13
2019-04-06T21:01:00.174Z,49.80
2019-04-06T21:03:29.908Z,52.37
2019-04-06T21:05:59.672Z,49.93
2019-04-06T21:08:29.720Z,51.47
2019-04-06T21:10:59.492Z,54.90
2019-04-06T21:13:30.327Z,50.00
2019-04-06T21:16:00.035Z,48.50
2019-04-06T21:18:29.677Z,51.07
2019-04-06T21:20:59.857Z,51.67
2019-04-06T21:23:29.611Z,53.77
2019-04-06T21:25:59.337Z,48.43
2019-04-06T21:28:28.986Z,50.43
2019-04-06T21:30:58.681Z,48.50
2019-04-06T21:33:28.654Z,50.03
2019-04-06T21:35:59.363Z,49.17
2019-04-06T21:38:29.567Z,47.83
2019-04-06T21:40:59.295Z,49.27
2019-04-06T21:43:28.971Z,48.33
2019-04-06T21:45:58.679Z,50.33
2019-04-06T21:48:28.356Z,53.70
2019-04-06T21:50:58.287Z,54.60
2019-04-06T21:53:29.109Z,49.47
2019-04-06T21:56:03.370Z,58.87
2019-04-06T21:58:30.309Z,56.77
2019-04-06T22:01:00.463Z,58.60
2019-04-06T22:03:30.248Z,54.37
2019-04-06T22:05:59.891Z,49.20
2019-04-06T22:08:29.641Z,48.47
2019-04-06T22:10:59.390Z,49.60
2019-04-06T22:13:29.941Z,46.87
2019-04-06T22:15:59.798Z,50.87
2019-04-06T22:18:29.523Z,51.63
2019-04-06T22:20:59.597Z,51.97
2019-04-06T22:23:39.718Z,57.03
2019-04-06T22:26:00.779Z,55.53
2019-04-06T22:28:31.096Z,47.07
2019-04-06T22:31:00.847Z,49.87
2019-04-06T22:33:31.582Z,55.17
2019-04-06T22:36:01.315Z,48.37
2019-04-06T22:38:30.972Z,45.73
2019-04-06T22:41:01.239Z,49.27
2019-04-06T22:43:30.995Z,51.43
2019-04-06T22:46:01.550Z,49.37
2019-04-06T22:48:31.471Z,53.37
2019-04-06T22:51:01.145Z,51.23
2019-04-06T22:53:30.871Z,48.70
2019-04-06T22:56:00.755Z,49.30
2019-04-06T22:58:30.660Z,50.80
2019-04-06T23:01:11.982Z,54.10
2019-04-06T23:04:13.338Z,54.30
2019-04-06T23:06:47.444Z,46.27
2019-04-06T23:09:17.672Z,51.43
2019-04-06T23:11:47.375Z,56.83
2019-04-06T23:14:17.198Z,53.33
2019-04-06T23:16:47.556Z,51.07
2019-04-06T23:19:18.468Z,56.57
2019-04-06T23:21:48.788Z,53.53
2019-04-06T23:24:18.553Z,47.50
2019-04-06T23:26:48.702Z,58.43
2019-04-06T23:29:19.529Z,58.00
2019-04-06T23:31:49.535Z,57.17
2019-04-06T23:34:19.291Z,52.77
2019-04-06T23:36:48.952Z,54.13
2019-04-06T23:39:18.630Z,48.73
2019-04-06T23:41:48.428Z,54.43
2019-04-06T23:44:18.483Z,52.57
2019-04-06T23:46:49.674Z,56.03
2019-04-06T23:49:19.447Z,52.38
2019-04-06T23:51:49.218Z,55.33
2019-04-06T23:54:19.255Z,53.43
2019-04-06T23:56:48.935Z,50.70
2019-04-06T23:59:18.809Z,52.60
